createdAt,value
2022-12-31T00:03:11.312Z,91.37
2022-12-31T00:08:11.111Z,91.27
2022-12-31T00:13:11.075Z,91.47
2022-12-31T00:18:11.040Z,91.57
2022-12-31T00:23:11.010Z,91.47
2022-12-31T00:28:10.990Z,91.78
2022-12-31T00:33:10.959Z,91.42
2022-12-31T00:38:10.915Z,92.19
2022-12-31T00:43:10.873Z,92.50
2022-12-31T00:48:10.851Z,92.25
2022-12-31T00:53:10.783Z,92.35
2022-12-31T00:58:10.783Z,93.13
2022-12-31T01:03:10.837Z,93.19
2022-12-31T01:08:10.721Z,94.52
2022-12-31T01:13:10.678Z,94.01
2022-12-31T01:18:10.653Z,94.52
2022-12-31T01:23:13.279Z,92.83
2022-12-31T01:28:10.563Z,92.74
2022-12-31T01:33:10.521Z,92.08
2022-12-31T01:38:10.522Z,91.67
2022-12-31T01:43:10.520Z,91.87
2022-12-31T01:48:10.457Z,91.56
2022-12-31T01:53:10.450Z,91.42
2022-12-31T01:58:10.402Z,90.39
2022-12-31T02:03:10.398Z,90.60
2022-12-31T02:08:10.346Z,90.30
2022-12-31T02:13:10.301Z,90.25
2022-12-31T02:18:10.296Z,90.05
2022-12-31T02:23:10.284Z,90.30
2022-12-31T02:28:10.279Z,89.84
2022-12-31T02:33:10.228Z,89.53
2022-12-31T02:38:10.186Z,89.68
2022-12-31T02:43:10.138Z,90.09
2022-12-31T02:48:10.097Z,90.39
2022-12-31T02:53:10.065Z,90.50
2022-12-31T02:58:10.025Z,90.05
2022-12-31T03:03:09.988Z,90.66
2022-12-31T03:08:09.975Z,90.45
2022-12-31T03:13:09.920Z,90.77
2022-12-31T03:18:09.881Z,90.97
2022-12-31T03:23:09.852Z,90.72
2022-12-31T03:28:09.800Z,90.52
2022-12-31T03:33:09.776Z,90.06
2022-12-31T03:38:09.734Z,90.27
2022-12-31T03:43:09.818Z,90.62
2022-12-31T03:48:09.669Z,90.47
2022-12-31T03:53:09.633Z,90.47
2022-12-31T03:58:09.580Z,91.13
2022-12-31T04:03:09.618Z,90.78
2022-12-31T04:08:09.520Z,91.39
2022-12-31T04:13:09.472Z,91.19
2022-12-31T04:18:09.419Z,91.80
2022-12-31T04:23:09.431Z,92.21
2022-12-31T04:28:09.374Z,93.24
2022-12-31T04:33:09.337Z,96.14
2022-12-31T04:38:09.416Z,97.27
2022-12-31T04:43:09.268Z,97.41
2022-12-31T04:48:09.227Z,97.37
2022-12-31T04:53:09.185Z,97.21
2022-12-31T04:58:09.135Z,97.52
2022-12-31T05:03:09.136Z,97.57
2022-12-31T05:08:09.072Z,97.37
2022-12-31T05:13:09.040Z,96.86
2022-12-31T05:18:09.011Z,96.86
2022-12-31T05:23:09.319Z,96.30
2022-12-31T05:28:08.953Z,96.20
2022-12-31T05:33:08.928Z,94.62
2022-12-31T05:38:08.905Z,94.52
2022-12-31T05:43:08.880Z,94.32
2022-12-31T05:48:08.846Z,93.05
2022-12-31T05:53:08.812Z,93.25
2022-12-31T05:58:08.778Z,92.49
2022-12-31T06:03:08.835Z,91.43
2022-12-31T06:08:08.692Z,90.47
2022-12-31T06:13:08.681Z,89.86
2022-12-31T06:18:08.608Z,89.45
2022-12-31T06:23:08.588Z,90.47
2022-12-31T06:28:08.560Z,89.96
2022-12-31T06:33:08.529Z,89.75
2022-12-31T06:38:08.482Z,88.39
2022-12-31T06:43:08.439Z,88.59
2022-12-31T06:48:08.422Z,88.49
2022-12-31T06:53:08.378Z,88.49
2022-12-31T06:58:08.357Z,87.73
2022-12-31T07:03:08.349Z,86.88
2022-12-31T07:08:08.274Z,87.73
2022-12-31T07:13:08.301Z,87.84
2022-12-31T07:18:08.221Z,87.63
2022-12-31T07:23:08.209Z,87.63
2022-12-31T07:28:08.168Z,86.57
2022-12-31T07:33:08.118Z,86.02
2022-12-31T07:38:08.117Z,85.27
2022-12-31T07:43:08.076Z,85.37
2022-12-31T07:48:08.026Z,85.37
2022-12-31T07:53:08.007Z,85.23
2022-12-31T07:58:07.947Z,84.72
2022-12-31T08:03:07.915Z,83.76
2022-12-31T08:08:07.867Z,82.20
2022-12-31T08:13:07.890Z,82.17
2022-12-31T08:18:07.859Z,82.06
2022-12-31T08:23:07.805Z,81.86
2022-12-31T08:28:07.752Z,81.76
2022-12-31T08:33:07.753Z,80.19
2022-12-31T08:38:07.704Z,79.85
2022-12-31T08:43:08.320Z,80.60
2022-12-31T08:48:07.640Z,80.16
2022-12-31T08:53:07.591Z,80.36
2022-12-31T08:58:07.538Z,79.96
2022-12-31T09:03:07.533Z,80.57
2022-12-31T09:08:07.503Z,80.46
2022-12-31T09:13:07.496Z,79.82
2022-12-31T09:18:07.488Z,79.96
2022-12-31T09:23:07.476Z,80.36
2022-12-31T09:28:07.406Z,79.92
2022-12-31T09:33:07.396Z,79.17
2022-12-31T09:38:11.445Z,78.77
2022-12-31T09:43:07.327Z,79.17
2022-12-31T09:48:07.319Z,78.97
2022-12-31T09:53:07.303Z,78.87
2022-12-31T09:58:07.293Z,77.72
2022-12-31T10:03:07.274Z,77.92
2022-12-31T10:08:07.228Z,77.28
2022-12-31T10:13:07.206Z,76.97
2022-12-31T10:18:07.159Z,76.53
2022-12-31T10:23:07.150Z,75.82
2022-12-31T10:28:07.120Z,75.48
2022-12-31T10:33:07.106Z,75.18
2022-12-31T10:38:07.078Z,75.58
2022-12-31T10:43:07.052Z,74.87
2022-12-31T10:48:07.055Z,74.43
2022-12-31T10:53:07.031Z,74.43
2022-12-31T10:58:07.008Z,74.54
2022-12-31T11:03:07.092Z,74.33
2022-12-31T11:08:06.963Z,74.54
2022-12-31T11:13:06.979Z,74.63
2022-12-31T11:18:06.897Z,73.52
2022-12-31T11:23:06.897Z,73.93
2022-12-31T11:28:06.830Z,73.93
2022-12-31T11:33:06.799Z,74.57
2022-12-31T11:38:06.776Z,74.63
2022-12-31T11:43:06.793Z,74.33
2022-12-31T11:53:06.705Z,74.13
2022-12-31T11:58:06.648Z,74.03
2022-12-31T12:03:06.705Z,73.28
2022-12-31T12:08:06.615Z,73.39
2022-12-31T12:13:06.603Z,73.43
2022-12-31T12:18:06.590Z,73.52
2022-12-31T12:23:06.579Z,72.88
2022-12-31T12:28:06.516Z,73.08
2022-12-31T12:33:06.529Z,73.63
2022-12-31T12:38:06.472Z,74.03
2022-12-31T12:43:06.446Z,73.32
2022-12-31T12:48:06.414Z,73.22
2022-12-31T12:53:06.360Z,72.58
2022-12-31T12:58:06.303Z,72.99
2022-12-31T13:03:06.388Z,73.22
2022-12-31T13:08:06.231Z,73.52
2022-12-31T13:18:06.218Z,73.43
2022-12-31T13:23:06.160Z,73.08
2022-12-31T13:28:06.116Z,74.13
2022-12-31T13:33:06.089Z,74.33
2022-12-31T13:38:06.156Z,74.47
2022-12-31T13:43:06.066Z,74.23
2022-12-31T13:48:06.030Z,73.52
2022-12-31T13:53:05.997Z,73.22
2022-12-31T13:58:05.943Z,73.22
2022-12-31T14:03:05.985Z,73.32
2022-12-31T14:08:05.896Z,74.16
2022-12-31T14:13:05.912Z,75.21
2022-12-31T14:18:05.868Z,75.85
2022-12-31T14:23:05.876Z,75.62
2022-12-31T14:28:05.819Z,76.46
2022-12-31T14:33:05.763Z,77.11
2022-12-31T14:38:05.720Z,77.65
2022-12-31T14:43:05.719Z,77.01
2022-12-31T14:48:05.673Z,77.01
2022-12-31T14:53:05.623Z,76.50
2022-12-31T15:03:05.590Z,77.14
2022-12-31T15:08:05.521Z,77.14
2022-12-31T15:13:05.478Z,76.84
2022-12-31T15:18:05.422Z,75.79
2022-12-31T15:23:05.418Z,75.55
2022-12-31T15:28:05.375Z,75.15
2022-12-31T15:33:05.355Z,74.74
2022-12-31T15:38:05.312Z,74.40
2022-12-31T15:43:05.313Z,74.10
2022-12-31T15:48:05.257Z,74.30
2022-12-31T15:53:05.258Z,74.30
2022-12-31T15:58:05.236Z,74.84
2022-12-31T16:03:05.213Z,73.80
2022-12-31T16:08:05.162Z,74.24
2022-12-31T16:13:05.135Z,73.69
2022-12-31T16:18:05.103Z,73.09
2022-12-31T16:23:05.064Z,73.09
2022-12-31T16:28:05.035Z,73.63
2022-12-31T16:33:04.975Z,73.63
2022-12-31T16:38:04.963Z,74.04
2022-12-31T16:43:04.953Z,74.04
2022-12-31T16:48:04.917Z,73.63
2022-12-31T16:53:04.874Z,73.73
2022-12-31T16:58:04.807Z,74.27
2022-12-31T17:03:04.811Z,74.48
2022-12-31T17:08:04.729Z,74.57
2022-12-31T17:18:04.667Z,75.01
2022-12-31T17:23:04.614Z,73.86
2022-12-31T17:28:04.566Z,74.07
2022-12-31T17:33:04.568Z,73.32
2022-12-31T17:38:04.522Z,73.25
2022-12-31T17:43:04.513Z,73.02
2022-12-31T17:48:04.435Z,73.36
2022-12-31T17:53:04.396Z,72.92
2022-12-31T17:58:04.384Z,73.05
2022-12-31T18:03:04.417Z,73.16
2022-12-31T18:08:04.330Z,72.75
2022-12-31T18:13:04.324Z,72.55
2022-12-31T18:18:04.269Z,72.96
2022-12-31T18:23:04.284Z,73.36
2022-12-31T18:28:04.219Z,73.70
2022-12-31T18:33:04.207Z,73.60
2022-12-31T18:38:04.183Z,74.10
2022-12-31T18:43:05.265Z,73.70
2022-12-31T18:48:04.078Z,73.80
2022-12-31T18:53:04.086Z,73.49
2022-12-31T18:58:04.166Z,72.89
2022-12-31T19:03:04.082Z,72.58
2022-12-31T19:08:04.000Z,72.48
2022-12-31T19:13:03.957Z,72.48
2022-12-31T19:18:03.952Z,71.73
2022-12-31T19:23:03.916Z,71.84
2022-12-31T19:28:03.847Z,71.67
2022-12-31T19:33:03.840Z,71.13
2022-12-31T19:38:03.818Z,71.77
2022-12-31T19:43:03.829Z,71.67
2022-12-31T19:48:03.785Z,70.76
2022-12-31T19:53:03.773Z,69.81
2022-12-31T19:58:03.724Z,68.56
2022-12-31T20:03:03.875Z,69.41
2022-12-31T20:08:04.021Z,69.64
2022-12-31T20:13:03.649Z,68.80
2022-12-31T20:18:03.579Z,68.70
2022-12-31T20:23:04.574Z,69.13
2022-12-31T20:28:03.514Z,68.63
2022-12-31T20:33:03.464Z,68.63
2022-12-31T20:38:03.419Z,68.83
2022-12-31T20:43:03.365Z,69.27
2022-12-31T20:48:03.373Z,68.63
2022-12-31T20:53:03.340Z,68.43
2022-12-31T20:58:03.315Z,68.02
2022-12-31T21:03:14.382Z,67.82
2022-12-31T21:08:03.306Z,67.41
2022-12-31T21:13:03.287Z,67.51
2022-12-31T21:18:03.302Z,67.41
2022-12-31T21:23:03.229Z,67.41
2022-12-31T21:28:03.189Z,67.41
2022-12-31T21:33:03.187Z,66.70
2022-12-31T21:38:03.139Z,66.70
2022-12-31T21:43:03.120Z,66.91
2022-12-31T21:48:03.072Z,66.80
2022-12-31T21:53:03.098Z,67.44
2022-12-31T22:03:03.244Z,66.53
2022-12-31T22:08:02.993Z,66.74
2022-12-31T22:13:03.014Z,66.83
2022-12-31T22:18:02.977Z,65.79
2022-12-31T22:23:02.918Z,65.79
2022-12-31T22:28:36.971Z,65.92
2022-12-31T22:33:02.893Z,65.48
2022-12-31T22:38:08.353Z,65.92
2022-12-31T22:43:02.832Z,66.26
2022-12-31T22:48:02.778Z,66.36
2022-12-31T22:53:02.742Z,66.60
2022-12-31T22:58:02.687Z,65.95
2022-12-31T23:03:02.758Z,65.45
2022-12-31T23:08:09.446Z,64.73
2022-12-31T23:13:02.691Z,64.64
2022-12-31T23:18:02.612Z,63.39
2022-12-31T23:23:02.608Z,63.62
2022-12-31T23:28:02.581Z,63.32
2022-12-31T23:33:02.523Z,62.98
2022-12-31T23:38:02.516Z,61.76
2022-12-31T23:43:02.498Z,61.59
2022-12-31T23:48:02.505Z,61.49
2022-12-31T23:53:02.451Z,61.59
2022-12-31T23:58:02.397Z,60.95
